Time;durP1;ratioP1;P1;durP2;ratioP2;P2;SDS_P1;SDS_P2;PMS_P1;PMS_P2;Temp;Humidity;BMP_temperature;BMP_pressure;BME280_temperature;BME280_humidity;BME280_pressure;Samples;Min_cycle;Max_cycle;Signal;HPM_P1;HPM_P2
2023/06/19 00:01:12;;;;;;;8.88;4.65;;;19.90;99.90;;;;;;4912785;29;20060;-90
2023/06/19 00:03:38;;;;;;;8.40;5.32;;;;;;;;;;4889649;29;20039;-91
2023/06/19 00:06:05;;;;;;;7.40;3.92;;;19.90;99.90;;;;;;4907608;29;20036;-90
2023/06/19 00:08:32;;;;;;;12.70;5.20;;;19.80;99.90;;;;;;4896072;29;20044;-91
2023/06/19 00:10:58;;;;;;;4.70;4.20;;;19.80;99.90;;;;;;4892141;29;20390;-91
2023/06/19 00:13:23;;;;;;;8.75;4.10;;;19.70;99.90;;;;;;4897041;29;20037;-91
2023/06/19 00:15:50;;;;;;;6.35;4.82;;;19.70;99.90;;;;;;4896853;29;20035;-90
2023/06/19 00:22:11;;;;;;;5.03;4.03;;;19.60;99.90;;;;;;4891305;29;20107;-88
2023/06/19 01:29:34;;;;;;;2.67;1.35;;;18.80;99.90;;;;;;4938887;29;20043;-90
2023/06/19 01:32:05;;;;;;;1.45;1.35;;;18.70;99.90;;;;;;4932030;29;20504;-89
2023/06/19 01:34:33;;;;;;;2.38;1.45;;;18.70;99.90;;;;;;4932473;29;20075;-89
2023/06/19 01:36:59;;;;;;;1.58;1.50;;;18.60;99.90;;;;;;4932153;29;20031;-89
2023/06/19 01:39:25;;;;;;;2.65;1.52;;;18.40;99.90;;;;;;4933982;29;20040;-88
2023/06/19 01:41:52;;;;;;;1.98;1.88;;;18.50;99.90;;;;;;4916177;29;20114;-88
2023/06/19 01:44:18;;;;;;;2.03;1.88;;;18.40;99.90;;;;;;4932358;29;20039;-89
2023/06/19 01:46:48;;;;;;;1.50;1.40;;;18.40;99.90;;;;;;4934765;29;20024;-88
2023/06/19 01:49:13;;;;;;;2.22;1.58;;;18.40;99.90;;;;;;4931979;29;20035;-88
2023/06/19 01:51:39;;;;;;;3.50;2.58;;;18.40;99.90;;;;;;4931966;29;20126;-89
2023/06/19 01:54:05;;;;;;;1.83;1.73;;;18.40;99.90;;;;;;4932210;29;20035;-89
2023/06/19 01:59:53;;;;;;;1.40;1.30;;;18.50;99.90;;;;;;4949095;29;20148;-89
2023/06/19 02:08:56;;;;;;;1.63;1.52;;;18.60;99.90;;;;;;4938462;29;20180;-90
2023/06/19 02:11:21;;;;;;;1.73;1.55;;;18.20;99.90;;;;;;4933272;29;20070;-87
2023/06/19 02:13:47;;;;;;;3.78;2.05;;;18.10;99.90;;;;;;4941844;29;20066;-86
2023/06/19 02:16:13;;;;;;;3.53;1.50;;;18.10;99.90;;;;;;4933454;29;20036;-89
2023/06/19 02:18:39;;;;;;;1.52;1.42;;;;;;;;;;4932007;29;20118;-88
2023/06/19 02:27:31;;;;;;;1.48;1.38;;;18.10;99.90;;;;;;4951963;29;20035;-88
2023/06/19 02:29:56;;;;;;;2.47;1.73;;;17.70;99.90;;;;;;4931855;29;20027;-89
2023/06/19 02:32:26;;;;;;;1.90;1.77;;;18.10;99.90;;;;;;4933659;29;20034;-89
2023/06/19 02:34:52;;;;;;;2.15;1.55;;;18.00;99.90;;;;;;4934610;29;20034;-89
2023/06/19 02:37:17;;;;;;;2.10;1.80;;;18.00;99.90;;;;;;4934880;29;20024;-88
2023/06/19 02:39:43;;;;;;;1.58;1.48;;;;;;;;;;4942692;29;20117;-89
2023/06/19 02:42:09;;;;;;;1.42;1.20;;;17.90;99.90;;;;;;4938974;29;20028;-91
2023/06/19 02:44:34;;;;;;;1.65;1.48;;;17.90;99.90;;;;;;4941641;29;20058;-89
2023/06/19 02:47:00;;;;;;;2.65;1.92;;;;;;;;;;4940231;29;20690;-88
2023/06/19 02:49:26;;;;;;;1.90;1.73;;;17.70;99.90;;;;;;4941956;29;20034;-89
2023/06/19 02:51:52;;;;;;;1.80;1.70;;;17.70;99.90;;;;;;4952983;29;20027;-89
2023/06/19 02:54:17;;;;;;;2.17;1.80;;;17.60;99.90;;;;;;4957547;29;20035;-89
2023/06/19 02:56:46;;;;;;;2.90;2.20;;;17.70;99.90;;;;;;4957588;29;20559;-90
2023/06/19 02:59:12;;;;;;;2.47;2.23;;;;;;;;;;4955134;29;20039;-90
2023/06/19 03:01:38;;;;;;;1.73;1.60;;;17.60;99.90;;;;;;4952611;29;20024;-89
2023/06/19 03:04:03;;;;;;;3.05;2.10;;;17.60;99.90;;;;;;4948856;29;20027;-89
2023/06/19 03:06:38;;;;;;;6.03;1.90;;;;;;;;;;4954346;29;20513;-89
2023/06/19 03:09:05;;;;;;;2.00;1.80;;;17.40;99.90;;;;;;4953328;29;20100;-89
2023/06/19 03:11:31;;;;;;;2.35;1.58;;;17.40;99.90;;;;;;4957175;29;20028;-90
2023/06/19 03:13:56;;;;;;;2.15;2.05;;;17.40;99.90;;;;;;4953402;29;20030;-89
2023/06/19 03:16:22;;;;;;;2.63;1.92;;;17.40;99.90;;;;;;4945261;29;20027;-89
2023/06/19 03:18:48;;;;;;;1.73;1.52;;;;;;;;;;4939351;29;20172;-90
2023/06/19 03:21:15;;;;;;;1.80;1.70;;;17.30;99.90;;;;;;4947437;29;20027;-89
2023/06/19 03:23:41;;;;;;;2.05;1.92;;;17.50;99.90;;;;;;4950947;29;20023;-89
2023/06/19 03:26:07;;;;;;;1.75;1.65;;;17.30;99.90;;;;;;4953886;29;20087;-89
2023/06/19 03:28:34;;;;;;;3.10;2.15;;;18.80;99.90;;;;;;4947573;29;20436;-89
2023/06/19 03:31:00;;;;;;;1.90;1.67;;;17.30;99.90;;;;;;4943964;29;20019;-88
2023/06/19 03:33:26;;;;;;;1.77;1.60;;;17.30;99.90;;;;;;4939459;29;20156;-90
2023/06/19 03:35:52;;;;;;;2.03;1.92;;;17.30;99.90;;;;;;4936318;29;20048;-88
2023/06/19 03:38:19;;;;;;;2.00;1.70;;;17.40;99.90;;;;;;4937537;29;20032;-87
2023/06/19 03:40:45;;;;;;;2.38;2.17;;;;;;;;;;4940694;29;20167;-89
2023/06/19 03:43:11;;;;;;;2.28;2.10;;;;;;;;;;4936900;29;20059;-88
2023/06/19 03:45:36;;;;;;;1.65;1.55;;;17.20;99.90;;;;;;4934595;29;20031;-88
2023/06/19 03:48:02;;;;;;;1.85;1.75;;;17.20;99.90;;;;;;4934414;29;20042;-88
2023/06/19 03:50:28;;;;;;;2.97;2.60;;;17.20;99.90;;;;;;4934344;29;20102;-88
2023/06/19 03:52:54;;;;;;;2.53;1.63;;;;;;;;;;4934580;29;20042;-88
2023/06/19 03:55:21;;;;;;;4.05;2.17;;;;;;;;;;4936679;29;20139;-87
2023/06/19 03:57:47;;;;;;;2.08;1.90;;;17.20;99.90;;;;;;4935424;29;20028;-88
2023/06/19 04:00:14;;;;;;;2.10;1.73;;;17.10;99.90;;;;;;4934470;29;20038;-88
2023/06/19 04:02:40;;;;;;;3.17;2.30;;;17.10;99.90;;;;;;4937938;29;20035;-87
2023/06/19 04:05:06;;;;;;;2.17;1.80;;;17.10;99.90;;;;;;4934154;29;20031;-87
2023/06/19 04:07:32;;;;;;;4.00;2.22;;;17.10;99.90;;;;;;4934299;29;20048;-88
2023/06/19 04:09:59;;;;;;;2.30;2.08;;;17.20;99.90;;;;;;4935270;29;20028;-88
2023/06/19 04:12:24;;;;;;;3.50;2.30;;;17.30;99.90;;;;;;4934234;29;20024;-89
2023/06/19 04:14:51;;;;;;;4.32;2.30;;;;;;;;;;4934614;29;20087;-89
2023/06/19 04:17:17;;;;;;;5.20;2.22;;;17.40;99.90;;;;;;4934192;29;20042;-88
2023/06/19 04:19:43;;;;;;;3.55;2.10;;;17.50;99.90;;;;;;4933414;29;20043;-87
2023/06/19 04:22:09;;;;;;;2.03;1.90;;;17.50;99.90;;;;;;4933689;29;20023;-89
2023/06/19 04:24:35;;;;;;;9.00;2.35;;;17.50;99.90;;;;;;4933571;29;20071;-88
2023/06/19 04:27:01;;;;;;;2.17;1.98;;;17.50;99.90;;;;;;4933360;29;20046;-87
2023/06/19 04:29:31;;;;;;;3.42;2.20;;;17.50;99.90;;;;;;4933692;29;20413;-87
2023/06/19 04:32:00;;;;;;;2.28;2.08;;;17.50;99.90;;;;;;4933551;29;20020;-88
2023/06/19 04:34:25;;;;;;;3.22;2.10;;;17.50;99.90;;;;;;4917653;29;20059;-87
2023/06/19 04:36:51;;;;;;;2.40;2.08;;;17.60;99.90;;;;;;4933201;29;20047;-87
2023/06/19 04:39:17;;;;;;;2.08;1.55;;;17.60;99.90;;;;;;4933048;29;20043;-87
2023/06/19 04:41:43;;;;;;;3.25;2.38;;;17.70;99.90;;;;;;4917156;29;20028;-89
2023/06/19 04:44:11;;;;;;;2.50;2.30;;;17.80;99.90;;;;;;4933528;29;20019;-87
2023/06/19 04:46:37;;;;;;;3.38;2.67;;;17.80;99.90;;;;;;4933421;29;20030;-88
2023/06/19 04:49:04;;;;;;;3.65;2.33;;;17.90;99.90;;;;;;4933082;29;20038;-87
2023/06/19 04:51:32;;;;;;;2.30;2.10;;;18.10;99.90;;;;;;4933032;29;20032;-87
2023/06/19 04:53:58;;;;;;;5.37;2.17;;;;;;;;;;4932925;29;20122;-89
2023/06/19 04:56:24;;;;;;;2.40;1.95;;;18.30;99.90;;;;;;4934241;29;20028;-88
2023/06/19 04:58:51;;;;;;;5.88;2.83;;;;;;;;;;4918980;29;20055;-88
2023/06/19 05:01:17;;;;;;;2.17;1.98;;;18.50;99.90;;;;;;4933554;29;20024;-87
2023/06/19 05:03:45;;;;;;;3.33;2.38;;;18.60;99.90;;;;;;4934522;29;20032;-88
2023/06/19 05:06:11;;;;;;;2.47;2.28;;;18.70;99.90;;;;;;4929553;29;20071;-87
2023/06/19 05:08:37;;;;;;;3.20;2.25;;;18.80;99.90;;;;;;4914115;29;20028;-88
2023/06/19 05:11:02;;;;;;;3.30;2.47;;;18.90;99.90;;;;;;4913683;29;20027;-88
2023/06/19 05:13:28;;;;;;;4.47;2.60;;;19.00;99.90;;;;;;4914177;29;20032;-87
2023/06/19 05:15:55;;;;;;;2.30;2.10;;;19.00;99.90;;;;;;4914718;29;20470;-88
2023/06/19 05:18:21;;;;;;;2.45;2.25;;;19.10;99.90;;;;;;4914635;29;20040;-87
2023/06/19 05:20:47;;;;;;;2.75;2.30;;;;;;;;;;4914554;29;20039;-87
2023/06/19 05:23:13;;;;;;;2.42;2.20;;;19.10;99.90;;;;;;4930017;29;20024;-88
2023/06/19 05:25:38;;;;;;;3.25;2.47;;;19.30;99.90;;;;;;4898381;29;20028;-87
2023/06/19 05:28:04;;;;;;;6.45;2.33;;;19.40;99.90;;;;;;4914019;29;20051;-87
2023/06/19 05:30:30;;;;;;;2.92;2.03;;;19.60;99.90;;;;;;4913980;29;20031;-83
2023/06/19 05:32:55;;;;;;;1.92;1.77;;;19.70;99.90;;;;;;4914716;29;20032;-86
2023/06/19 05:35:21;;;;;;;6.65;2.00;;;19.70;99.90;;;;;;4914114;29;20032;-85
2023/06/19 05:37:47;;;;;;;4.22;2.80;;;19.90;99.90;;;;;;4913876;29;20024;-84
2023/06/19 05:40:14;;;;;;;2.20;2.05;;;20.00;99.90;;;;;;4914709;29;20366;-83
2023/06/19 05:42:42;;;;;;;2.33;2.13;;;20.00;99.90;;;;;;4930714;29;20260;-83
2023/06/19 05:45:09;;;;;;;4.18;2.70;;;20.10;99.90;;;;;;4916663;29;20075;-83
2023/06/19 05:47:35;;;;;;;2.17;1.98;;;20.20;99.90;;;;;;4919944;29;20513;-84
2023/06/19 05:50:00;;;;;;;2.08;1.92;;;20.30;99.90;;;;;;4920685;29;20024;-84
2023/06/19 05:52:26;;;;;;;2.72;2.53;;;20.40;99.90;;;;;;4913724;29;20028;-85
2023/06/19 05:54:53;;;;;;;2.55;2.35;;;20.40;99.90;;;;;;4914331;29;20059;-85
2023/06/19 05:57:20;;;;;;;2.78;2.30;;;20.40;99.90;;;;;;4912812;29;20031;-83
2023/06/19 05:59:50;;;;;;;2.72;2.28;;;20.50;99.90;;;;;;4912121;29;20032;-84
2023/06/19 06:02:18;;;;;;;3.42;2.67;;;20.50;99.90;;;;;;4896612;29;20032;-83
2023/06/19 06:04:44;;;;;;;3.95;2.63;;;20.60;99.90;;;;;;4914186;29;20020;-85
2023/06/19 06:07:09;;;;;;;4.43;3.97;;;20.60;99.90;;;;;;4896490;29;20044;-81
2023/06/19 06:09:35;;;;;;;12.18;8.23;;;20.60;99.90;;;;;;4912690;29;20051;-82
2023/06/19 06:12:00;;;;;;;10.25;5.95;;;20.70;99.90;;;;;;4913266;29;20020;-82
2023/06/19 06:14:27;;;;;;;4.00;3.08;;;20.70;99.90;;;;;;4900971;29;20504;-82
2023/06/19 06:16:52;;;;;;;4.90;3.15;;;20.80;99.90;;;;;;4916500;29;20035;-81
2023/06/19 06:19:22;;;;;;;4.70;3.70;;;20.80;99.90;;;;;;4917276;29;20048;-83
2023/06/19 06:21:48;;;;;;;3.65;2.88;;;20.80;99.90;;;;;;4916063;29;20028;-81
2023/06/19 06:24:15;;;;;;;3.58;3.22;;;20.90;99.90;;;;;;4910048;29;20039;-80
2023/06/19 06:26:41;;;;;;;5.03;2.80;;;20.90;99.90;;;;;;4897067;29;20039;-80
2023/06/19 06:29:08;;;;;;;3.25;2.90;;;21.10;99.90;;;;;;4894963;29;20029;-82
2023/06/19 06:31:34;;;;;;;4.82;3.08;;;21.20;99.90;;;;;;4912506;29;20032;-83
2023/06/19 06:33:59;;;;;;;3.55;3.20;;;21.20;99.90;;;;;;4897112;29;20034;-80
2023/06/19 06:36:25;;;;;;;4.55;3.05;;;21.10;99.90;;;;;;4898092;29;20170;-82
2023/06/19 06:38:50;;;;;;;4.47;3.25;;;21.20;99.90;;;;;;4881520;29;20047;-82
2023/06/19 06:41:16;;;;;;;4.13;3.00;;;21.40;99.90;;;;;;4896939;29;20376;-83
2023/06/19 06:43:42;;;;;;;3.28;2.95;;;21.60;99.90;;;;;;4912717;29;20108;-83
2023/06/19 06:46:08;;;;;;;4.70;3.08;;;21.80;99.90;;;;;;4898339;29;20029;-83
2023/06/19 06:48:34;;;;;;;5.22;4.22;;;22.00;99.90;;;;;;4898589;29;20040;-84
2023/06/19 06:51:01;;;;;;;5.93;3.33;;;22.10;99.90;;;;;;4898342;29;20029;-84
2023/06/19 06:53:28;;;;;;;4.78;3.40;;;22.40;99.90;;;;;;4898213;29;20264;-84
2023/06/19 06:55:54;;;;;;;6.22;2.95;;;22.30;99.90;;;;;;4896929;29;20035;-86
2023/06/19 06:58:20;;;;;;;8.75;4.00;;;22.40;99.90;;;;;;4897490;29;20059;-81
2023/06/19 07:00:47;;;;;;;5.55;3.90;;;22.50;99.90;;;;;;4897973;29;20445;-84
2023/06/19 07:03:13;;;;;;;5.53;3.15;;;22.70;99.90;;;;;;4900123;29;20025;-92
2023/06/19 07:05:39;;;;;;;6.60;4.03;;;;;;;;;;4904910;29;20059;-91
2023/06/19 07:08:05;;;;;;;3.38;3.08;;;22.50;99.90;;;;;;4917187;29;20024;-89
2023/06/19 07:10:31;;;;;;;4.40;3.97;;;;;;;;;;4917965;29;20024;-90
2023/06/19 07:12:57;;;;;;;6.53;4.05;;;22.60;99.90;;;;;;4919679;29;20064;-89
2023/06/19 07:15:22;;;;;;;7.20;3.97;;;22.70;99.90;;;;;;4918129;29;20020;-88
2023/06/19 07:17:48;;;;;;;5.03;3.65;;;22.60;99.90;;;;;;4916382;29;20367;-85
2023/06/19 07:20:14;;;;;;;13.27;3.47;;;22.50;99.90;;;;;;4916853;29;20512;-89
2023/06/19 07:22:41;;;;;;;5.30;3.28;;;22.50;99.90;;;;;;4918274;29;20025;-86
2023/06/19 07:25:09;;;;;;;5.85;3.67;;;22.50;99.90;;;;;;4899265;29;20034;-85
2023/06/19 07:27:34;;;;;;;6.70;4.13;;;22.50;99.90;;;;;;4901057;29;20027;-88
2023/06/19 07:30:00;;;;;;;8.38;4.60;;;22.50;99.90;;;;;;4917932;29;20389;-89
2023/06/19 07:32:26;;;;;;;6.43;4.57;;;22.50;99.90;;;;;;4920111;29;20523;-90
2023/06/19 07:34:53;;;;;;;6.15;4.50;;;22.30;99.90;;;;;;4916841;29;20031;-91
2023/06/19 07:37:20;;;;;;;4.53;4.13;;;22.20;99.90;;;;;;4904796;29;20024;-86
2023/06/19 07:39:46;;;;;;;5.82;4.00;;;22.30;99.90;;;;;;4914843;29;20047;-82
2023/06/19 07:42:14;;;;;;;11.18;4.57;;;22.40;99.90;;;;;;4923052;29;20020;-90
2023/06/19 07:44:40;;;;;;;5.70;4.78;;;22.70;99.90;;;;;;4911716;29;20032;-90
2023/06/19 07:47:07;;;;;;;9.57;5.30;;;23.10;99.90;;;;;;4907363;29;20251;-88
2023/06/19 07:49:37;;;;;;;7.15;5.28;;;23.90;99.90;;;;;;4908389;29;20055;-93
2023/06/19 07:52:09;;;;;;;5.65;4.55;;;;;;;;;;4919518;29;20043;-90
2023/06/19 07:54:35;;;;;;;5.65;4.47;;;;;;;;;;4921990;29;20584;-85
2023/06/19 07:57:01;;;;;;;7.78;5.72;;;;;;;;;;4924333;29;20035;-86
2023/06/19 07:59:27;;;;;;;5.88;5.15;;;25.20;99.90;;;;;;4925681;29;20506;-88
2023/06/19 08:01:53;;;;;;;9.13;5.03;;;;;;;;;;4922430;29;20048;-87
2023/06/19 08:04:19;;;;;;;5.97;5.00;;;26.40;99.90;;;;;;4932126;29;20035;-91
2023/06/19 08:06:45;;;;;;;8.85;5.10;;;;;;;;;;4907317;29;20454;-88
2023/06/19 08:09:11;;;;;;;9.10;5.28;;;;;;;;;;4920892;29;20032;-87
2023/06/19 08:11:37;;;;;;;6.57;4.53;;;;;;;;;;4929657;29;20044;-83
2023/06/19 08:14:03;;;;;;;6.78;4.80;;;;;;;;;;4915222;29;20028;-81
2023/06/19 08:16:29;;;;;;;6.25;4.43;;;28.40;99.90;;;;;;4918872;29;20024;-86
2023/06/19 08:18:54;;;;;;;5.43;4.75;;;28.50;96.60;;;;;;4919018;29;20621;-86
2023/06/19 08:21:21;;;;;;;5.15;4.65;;;28.50;95.30;;;;;;4915038;29;20040;-82
2023/06/19 08:23:47;;;;;;;4.70;4.28;;;;;;;;;;4915670;29;20119;-82
2023/06/19 08:26:13;;;;;;;5.13;4.55;;;;;;;;;;4915315;29;20123;-82
2023/06/19 08:28:43;;;;;;;4.80;4.40;;;;;;;;;;4916793;29;20529;-82
2023/06/19 08:31:09;;;;;;;6.50;3.92;;;;;;;;;;4917190;29;20032;-82
2023/06/19 08:33:35;;;;;;;7.32;4.68;;;;;;;;;;4918566;29;20047;-82
2023/06/19 08:36:01;;;;;;;5.53;4.35;;;;;;;;;;4916536;29;20020;-82
2023/06/19 08:38:27;;;;;;;4.43;3.95;;;;;;;;;;4918074;29;20063;-83
2023/06/19 08:40:55;;;;;;;6.55;4.35;;;29.50;76.90;;;;;;4920258;29;20047;-84
2023/06/19 08:43:21;;;;;;;4.38;3.72;;;;;;;;;;4919395;29;20265;-85
2023/06/19 08:46:17;;;;;;;4.50;4.10;;;29.00;80.00;;;;;;4917448;29;20032;-82
2023/06/19 08:48:44;;;;;;;4.07;3.47;;;29.10;81.10;;;;;;4900431;29;20067;-83
2023/06/19 08:51:13;;;;;;;5.20;3.30;;;25.70;78.70;;;;;;4899727;29;20039;-82
2023/06/19 08:53:54;;;;;;;4.30;3.85;;;28.80;77.70;;;;;;4914941;29;20059;-83
2023/06/19 08:56:33;;;;;;;5.88;4.00;;;28.90;75.80;;;;;;5129147;27;20362;-83
2023/06/19 08:59:09;;;;;;;5.55;3.80;;;29.40;81.50;;;;;;5090953;28;20909;-83
2023/06/19 09:01:35;;;;;;;4.72;3.97;;;;;;;;;;5091235;28;20024;-83
2023/06/19 09:04:08;;;;;;;6.35;4.38;;;28.70;76.70;;;;;;5092661;28;20027;-85
2023/06/19 09:06:38;;;;;;;4.63;4.22;;;28.60;76.60;;;;;;5092670;28;20110;-82
2023/06/19 09:09:10;;;;;;;7.50;4.57;;;28.00;78.00;;;;;;5091371;28;20028;-86
2023/06/19 09:11:39;;;;;;;9.40;4.82;;;;;;;;;;5090487;28;20028;-84
2023/06/19 09:14:05;;;;;;;4.50;3.78;;;28.30;79.00;;;;;;5090249;28;20043;-83
2023/06/19 09:16:41;;;;;;;5.82;3.85;;;28.90;81.90;;;;;;5090028;28;20082;-83
2023/06/19 09:19:08;;;;;;;5.45;4.55;;;;;;;;;;5089614;28;20016;-80
2023/06/19 09:21:37;;;;;;;7.05;4.60;;;30.20;79.10;;;;;;5089067;28;20155;-78
2023/06/19 09:24:07;;;;;;;4.10;3.80;;;30.20;77.70;;;;;;5106606;28;20023;-78
2023/06/19 09:26:33;;;;;;;5.28;4.30;;;30.10;77.60;;;;;;5087979;28;20487;-78
2023/06/19 09:29:13;;;;;;;7.88;4.50;;;30.30;75.50;;;;;;5088254;28;20060;-78
2023/06/19 09:31:41;;;;;;;4.82;4.18;;;30.70;75.20;;;;;;5088510;28;20032;-78
2023/06/19 09:34:09;;;;;;;6.85;4.30;;;31.40;75.20;;;;;;5088456;28;20020;-82
2023/06/19 09:36:35;;;;;;;4.38;3.53;;;31.20;73.90;;;;;;5089730;28;20020;-78
2023/06/19 09:39:05;;;;;;;10.93;4.93;;;30.70;73.00;;;;;;5089870;28;20146;-84
2023/06/19 09:41:32;;;;;;;11.70;4.90;;;30.60;75.10;;;;;;5090564;28;20152;-85
2023/06/19 09:43:59;;;;;;;5.38;4.60;;;;;;;;;;5108155;28;20542;-82
2023/06/19 09:46:36;;;;;;;10.57;4.65;;;29.80;72.70;;;;;;5090598;28;20035;-78
2023/06/19 09:49:06;;;;;;;7.68;5.03;;;28.40;75.70;;;;;;5090574;28;20110;-86
2023/06/19 09:51:37;;;;;;;5.95;4.50;;;28.30;76.30;;;;;;5089500;28;20055;-83
2023/06/19 09:54:04;;;;;;;15.88;4.97;;;;;;;;;;5093003;28;20047;-80
2023/06/19 09:56:30;;;;;;;11.77;5.40;;;;;;;;;;5068626;28;20123;-82
2023/06/19 09:59:02;;;;;;;9.15;5.22;;;28.00;76.90;;;;;;5070552;28;20282;-86
2023/06/19 10:01:30;;;;;;;6.65;4.78;;;28.20;78.80;;;;;;5071353;28;20069;-84
2023/06/19 10:04:07;;;;;;;7.33;4.83;;;28.10;78.90;;;;;;5071699;28;20052;-81
2023/06/19 10:06:45;;;;;;;5.15;4.65;;;28.10;74.90;;;;;;5064870;28;20315;-85
2023/06/19 10:09:12;;;;;;;5.22;4.20;;;;;;;;;;5056298;28;20020;-87
2023/06/19 10:11:51;;;;;;;5.72;4.60;;;30.90;77.20;;;;;;5058592;28;20056;-82
2023/06/19 10:14:21;;;;;;;13.55;5.60;;;28.80;73.40;;;;;;5056247;28;20025;-81
2023/06/19 10:16:47;;;;;;;5.57;4.63;;;;;;;;;;5055187;28;20075;-78
2023/06/19 10:19:16;;;;;;;5.45;4.25;;;29.80;71.40;;;;;;5056738;28;20017;-81
2023/06/19 10:21:46;;;;;;;8.40;4.00;;;29.70;72.00;;;;;;5055204;28;20036;-82
2023/06/19 10:24:19;;;;;;;4.97;3.80;;;30.10;68.30;;;;;;5056011;28;20059;-80
2023/06/19 10:26:56;;;;;;;6.05;4.90;;;30.10;67.60;;;;;;5054612;28;20107;-82
2023/06/19 10:29:21;;;;;;;5.55;4.43;;;31.10;66.50;;;;;;5073589;28;20358;-86
2023/06/19 10:31:47;;;;;;;4.65;4.07;;;31.20;65.30;;;;;;5055203;28;20082;-78
2023/06/19 10:34:13;;;;;;;6.03;4.40;;;29.40;67.30;;;;;;5071950;28;20465;-81
2023/06/19 10:36:39;;;;;;;4.90;4.20;;;29.80;67.90;;;;;;5054459;28;20238;-86
2023/06/19 10:39:05;;;;;;;5.05;4.55;;;;;;;;;;5054630;28;20313;-83
2023/06/19 10:41:32;;;;;;;4.82;4.40;;;;;;;;;;5054366;28;20028;-84
2023/06/19 10:44:03;;;;;;;6.68;4.57;;;29.50;66.00;;;;;;5055676;28;20423;-87
2023/06/19 10:46:36;;;;;;;7.60;5.30;;;29.90;65.20;;;;;;5063445;28;20027;-84
2023/06/19 10:49:04;;;;;;;4.47;4.10;;;30.20;65.20;;;;;;5056872;28;20153;-82
2023/06/19 10:51:43;;;;;;;5.43;4.45;;;30.20;65.50;;;;;;5054535;28;20021;-81
2023/06/19 10:54:09;;;;;;;5.00;4.50;;;;;;;;;;5053462;28;20052;-80
2023/06/19 10:56:35;;;;;;;6.03;4.03;;;;;;;;;;5044496;28;20328;-81
2023/06/19 10:59:13;;;;;;;4.93;4.47;;;29.40;68.20;;;;;;5033981;28;20021;-81
2023/06/19 11:01:45;;;;;;;11.93;5.00;;;29.30;67.80;;;;;;5033762;28;20037;-81
2023/06/19 11:04:13;;;;;;;5.85;4.65;;;28.40;70.70;;;;;;5034459;28;20024;-80
2023/06/19 11:06:40;;;;;;;6.07;4.43;;;28.30;70.80;;;;;;5033380;28;20056;-86
2023/06/19 11:09:07;;;;;;;6.15;5.32;;;28.10;70.30;;;;;;5032651;28;20017;-80
2023/06/19 11:11:37;;;;;;;4.75;4.35;;;;;;;;;;5032139;28;20028;-80
2023/06/19 11:14:03;;;;;;;7.88;4.57;;;;;;;;;;5033012;28;20016;-81
2023/06/19 11:16:29;;;;;;;5.05;4.65;;;;;;;;;;5036835;28;20171;-82
2023/06/19 11:18:58;;;;;;;7.43;4.82;;;27.80;74.20;;;;;;5036775;28;20029;-81
2023/06/19 11:21:37;;;;;;;5.60;4.90;;;28.20;71.60;;;;;;5036627;28;20512;-85
2023/06/19 11:24:03;;;;;;;5.97;5.05;;;28.10;71.30;;;;;;5036231;28;20032;-80
2023/06/19 11:26:29;;;;;;;8.48;4.80;;;;;;;;;;5036890;28;20025;-90
2023/06/19 11:28:57;;;;;;;9.60;4.95;;;28.80;69.60;;;;;;5055858;28;20030;-80
2023/06/19 11:31:27;;;;;;;6.15;4.90;;;28.80;70.20;;;;;;5053732;28;20077;-82
2023/06/19 11:33:58;;;;;;;4.95;4.45;;;;;;;;;;5057263;28;20027;-80
2023/06/19 11:36:24;;;;;;;4.20;3.83;;;29.10;67.90;;;;;;5055985;28;20456;-83
2023/06/19 11:38:52;;;;;;;9.90;4.88;;;29.10;70.60;;;;;;5053302;28;20047;-80
2023/06/19 11:41:30;;;;;;;8.48;4.15;;;;;;;;;;5049318;28;20353;-83
2023/06/19 11:44:03;;;;;;;5.50;4.95;;;29.10;69.90;;;;;;5042719;28;20027;-82
2023/06/19 11:46:30;;;;;;;5.90;4.38;;;28.60;70.80;;;;;;5054672;28;20024;-84
2023/06/19 11:49:18;;;;;;;7.15;4.55;;;28.50;70.40;;;;;;5041273;28;20221;-86
2023/06/19 11:51:44;;;;;;;4.78;4.38;;;28.20;70.30;;;;;;5043377;28;20024;-79
2023/06/19 11:54:12;;;;;;;4.25;3.85;;;28.40;71.00;;;;;;5061850;28;20096;-83
2023/06/19 11:56:39;;;;;;;4.88;4.38;;;28.20;71.40;;;;;;5060519;28;20495;-86
2023/06/19 11:59:05;;;;;;;6.72;4.38;;;;;;;;;;5070530;28;20040;-83
2023/06/19 12:01:32;;;;;;;7.70;4.43;;;28.10;71.10;;;;;;5039058;28;20048;-82
2023/06/19 12:03:58;;;;;;;17.08;4.70;;;28.20;71.50;;;;;;5039399;28;20021;-85
2023/06/19 12:06:25;;;;;;;7.93;4.53;;;;;;;;;;5037006;28;20364;-80
2023/06/19 12:08:50;;;;;;;5.80;4.30;;;28.10;69.70;;;;;;5051238;28;20040;-80
2023/06/19 12:11:16;;;;;;;8.68;4.25;;;;;;;;;;5059877;28;20029;-82
2023/06/19 12:13:43;;;;;;;4.93;4.45;;;;;;;;;;5077072;28;20028;-83
2023/06/19 12:16:10;;;;;;;4.78;3.65;;;27.80;71.20;;;;;;5040003;28;20095;-81
2023/06/19 12:18:36;;;;;;;4.75;4.03;;;;;;;;;;5042751;28;20091;-81
2023/06/19 12:21:02;;;;;;;5.38;4.85;;;27.10;71.40;;;;;;5037399;28;20029;-81
2023/06/19 12:23:28;;;;;;;6.82;4.25;;;;;;;;;;5031335;28;20017;-83
2023/06/19 12:25:54;;;;;;;7.13;4.25;;;27.50;71.40;;;;;;5031120;28;20456;-87
2023/06/19 12:28:21;;;;;;;4.30;3.90;;;;;;;;;;5030803;28;20028;-83
2023/06/19 12:30:51;;;;;;;4.75;4.13;;;;;;;;;;5030867;28;20078;-81
2023/06/19 12:33:18;;;;;;;5.55;4.60;;;28.80;69.30;;;;;;5031647;28;20044;-83
2023/06/19 12:35:44;;;;;;;6.10;3.78;;;28.70;69.40;;;;;;5032415;28;20041;-79
2023/06/19 12:38:11;;;;;;;4.55;3.65;;;28.60;70.60;;;;;;5040900;28;20020;-85
2023/06/19 12:40:37;;;;;;;5.38;4.13;;;28.40;71.20;;;;;;5055089;28;20028;-84
2023/06/19 12:43:03;;;;;;;6.00;4.00;;;;;;;;;;5033135;28;20484;-82
2023/06/19 12:45:29;;;;;;;5.95;3.70;;;;;;;;;;5033193;28;20028;-82
2023/06/19 12:47:55;;;;;;;6.00;4.22;;;;;;;;;;5039914;28;20155;-83
2023/06/19 12:50:22;;;;;;;3.90;3.60;;;;;;;;;;5039410;28;20036;-82
2023/06/19 12:52:48;;;;;;;4.63;3.90;;;;;;;;;;5050915;28;20040;-83
2023/06/19 12:55:13;;;;;;;6.55;4.03;;;28.90;70.30;;;;;;5047976;28;20056;-82
2023/06/19 12:57:40;;;;;;;4.47;4.07;;;;;;;;;;5068068;28;20107;-82
2023/06/19 13:00:11;;;;;;;4.88;3.70;;;29.30;69.40;;;;;;5070853;28;20025;-82
2023/06/19 13:02:37;;;;;;;5.05;4.20;;;;;;;;;;5068555;28;20182;-82
2023/06/19 13:05:03;;;;;;;4.63;3.90;;;29.00;70.20;;;;;;5068475;28;20031;-82
2023/06/19 13:07:29;;;;;;;5.43;3.88;;;28.90;70.60;;;;;;5068655;28;20053;-81
2023/06/19 13:09:55;;;;;;;4.60;3.80;;;29.10;68.20;;;;;;5075863;28;20028;-84
2023/06/19 13:12:22;;;;;;;4.90;3.60;;;30.40;67.80;;;;;;5090769;28;20021;-85
2023/06/19 13:14:48;;;;;;;7.72;4.20;;;;;;;;;;5084573;28;20043;-81
2023/06/19 13:17:14;;;;;;;4.03;3.72;;;;;;;;;;5068846;28;20033;-81
2023/06/19 13:19:40;;;;;;;6.70;3.72;;;;;;;;;;5068511;28;20116;-85
2023/06/19 13:22:07;;;;;;;5.90;4.03;;;;;;;;;;5068707;28;20112;-83
2023/06/19 13:24:32;;;;;;;4.00;3.53;;;30.20;66.80;;;;;;5072004;28;20069;-84
2023/06/19 13:26:59;;;;;;;5.60;3.95;;;;;;;;;;5088751;28;20032;-86
2023/06/19 13:29:24;;;;;;;4.82;4.10;;;32.30;62.60;;;;;;5088083;28;20047;-87
2023/06/19 13:31:51;;;;;;;4.25;3.95;;;;;;;;;;5085897;28;20135;-85
2023/06/19 13:34:18;;;;;;;8.75;4.47;;;;;;;;;;5070121;28;20029;-87
2023/06/19 13:36:44;;;;;;;10.63;3.97;;;;;;;;;;5079476;28;20029;-84
2023/06/19 13:39:10;;;;;;;8.07;3.92;;;;;;;;;;5070980;28;20062;-83
2023/06/19 13:41:36;;;;;;;5.15;4.00;;;32.80;60.30;;;;;;5071235;28;20441;-86
2023/06/19 13:44:02;;;;;;;4.15;3.75;;;33.10;59.20;;;;;;5074534;28;20031;-83
2023/06/19 13:46:32;;;;;;;11.98;4.85;;;33.90;59.30;;;;;;5074415;28;20609;-88
2023/06/19 13:48:58;;;;;;;4.65;3.63;;;;;;;;;;5075822;28;20024;-83
2023/06/19 13:51:25;;;;;;;3.90;3.45;;;;;;;;;;5074031;28;20062;-79
2023/06/19 13:53:51;;;;;;;5.25;3.88;;;;;;;;;;5071931;28;20056;-78
2023/06/19 13:56:17;;;;;;;6.47;3.80;;;;;;;;;;5054131;28;20067;-77
2023/06/19 13:58:43;;;;;;;5.53;4.25;;;;;;;;;;5071389;28;20036;-81
2023/06/19 14:01:09;;;;;;;4.88;4.25;;;33.90;56.40;;;;;;5071229;28;20025;-78
2023/06/19 14:03:37;;;;;;;3.50;3.20;;;33.70;58.00;;;;;;5129313;27;20034;-80
2023/06/19 14:06:03;;;;;;;5.78;5.18;;;33.50;56.90;;;;;;5112365;28;20100;-79
2023/06/19 14:08:29;;;;;;;39.53;23.27;;;34.20;57.00;;;;;;5112349;28;20337;-78
2023/06/19 14:10:55;;;;;;;5.68;4.30;;;35.00;57.90;;;;;;5110472;28;20407;-79
2023/06/19 14:13:21;;;;;;;4.00;3.65;;;35.90;54.40;;;;;;5111291;28;20043;-79
2023/06/19 14:15:47;;;;;;;7.13;3.42;;;36.20;54.60;;;;;;5112587;28;20039;-78
2023/06/19 14:18:12;;;;;;;5.60;4.22;;;35.70;53.70;;;;;;5111945;28;20613;-79
2023/06/19 14:20:38;;;;;;;3.70;3.38;;;34.30;55.20;;;;;;5112345;28;20027;-78
2023/06/19 14:23:04;;;;;;;5.45;4.22;;;34.10;56.20;;;;;;5111600;28;20027;-77
2023/06/19 14:25:30;;;;;;;3.97;3.67;;;33.30;56.90;;;;;;5112656;28;20102;-80
2023/06/19 14:27:55;;;;;;;3.67;3.38;;;33.60;56.40;;;;;;5112423;28;20353;-78
2023/06/19 14:30:21;;;;;;;7.10;3.53;;;33.70;57.10;;;;;;5111860;28;20023;-78
2023/06/19 14:32:47;;;;;;;4.00;3.53;;;33.40;56.20;;;;;;5113344;28;20320;-78
2023/06/19 14:35:13;;;;;;;3.92;3.63;;;33.40;56.70;;;;;;5111384;28;20035;-79
2023/06/19 14:37:38;;;;;;;10.02;3.65;;;33.80;55.90;;;;;;5111256;28;20023;-79